sensor_id;sensor_type;location;lat;lon;timestamp;pressure;altitude;pressure_sealevel;temperature;humidity
81686;BME280;71102;50.960;6.888;2024-02-04T00:02:07;102074.19;;;13.20;81.88
81686;BME280;71102;50.960;6.888;2024-02-04T00:04:32;102089.13;;;13.14;82.93
81686;BME280;71102;50.960;6.888;2024-02-04T00:06:58;102082.06;;;13.16;82.38
81686;BME280;71102;50.960;6.888;2024-02-04T00:09:23;102079.69;;;13.34;82.29
81686;BME280;71102;50.960;6.888;2024-02-04T00:11:48;102083.38;;;13.43;80.48
81686;BME280;71102;50.960;6.888;2024-02-04T00:14:14;102071.97;;;13.52;80.49
81686;BME280;71102;50.960;6.888;2024-02-04T00:16:39;102074.75;;;13.59;80.16
81686;BME280;71102;50.960;6.888;2024-02-04T00:19:04;102072.00;;;13.53;79.19
81686;BME280;71102;50.960;6.888;2024-02-04T00:21:30;102063.84;;;13.41;79.72
81686;BME280;71102;50.960;6.888;2024-02-04T00:23:55;102058.97;;;13.71;78.73
81686;BME280;71102;50.960;6.888;2024-02-04T00:26:20;102058.09;;;13.74;78.36
81686;BME280;71102;50.960;6.888;2024-02-04T00:28:46;102053.41;;;13.56;78.96
81686;BME280;71102;50.960;6.888;2024-02-04T00:31:11;102054.28;;;13.54;78.73
81686;BME280;71102;50.960;6.888;2024-02-04T00:33:36;102057.84;;;13.57;78.54
81686;BME280;71102;50.960;6.888;2024-02-04T00:36:02;102062.03;;;13.39;79.33
81686;BME280;71102;50.960;6.888;2024-02-04T00:38:27;102051.50;;;13.48;79.55
81686;BME280;71102;50.960;6.888;2024-02-04T00:40:52;102059.63;;;12.98;80.75
81686;BME280;71102;50.960;6.888;2024-02-04T00:43:18;102046.84;;;13.30;80.07
81686;BME280;71102;50.960;6.888;2024-02-04T00:45:44;102043.69;;;13.00;80.69
81686;BME280;71102;50.960;6.888;2024-02-04T00:48:09;102044.69;;;13.08;81.10
81686;BME280;71102;50.960;6.888;2024-02-04T00:50:34;102051.78;;;13.09;80.65
81686;BME280;71102;50.960;6.888;2024-02-04T00:53:00;102053.75;;;13.21;79.73
81686;BME280;71102;50.960;6.888;2024-02-04T00:55:25;102050.19;;;13.19;80.54
81686;BME280;71102;50.960;6.888;2024-02-04T00:57:50;102054.19;;;12.94;80.89
81686;BME280;71102;50.960;6.888;2024-02-04T01:00:16;102053.25;;;12.92;80.95
81686;BME280;71102;50.960;6.888;2024-02-04T01:02:41;102050.75;;;12.99;80.83
81686;BME280;71102;50.960;6.888;2024-02-04T01:05:07;102050.44;;;12.83;81.84
81686;BME280;71102;50.960;6.888;2024-02-04T01:07:33;102048.63;;;12.82;81.85
81686;BME280;71102;50.960;6.888;2024-02-04T01:09:58;102044.44;;;12.96;81.02
81686;BME280;71102;50.960;6.888;2024-02-04T01:12:23;102047.28;;;13.05;80.73
81686;BME280;71102;50.960;6.888;2024-02-04T01:14:49;102054.00;;;12.85;81.28
81686;BME280;71102;50.960;6.888;2024-02-04T01:17:14;102052.50;;;12.99;81.01
81686;BME280;71102;50.960;6.888;2024-02-04T01:19:39;102051.44;;;12.89;81.83
81686;BME280;71102;50.960;6.888;2024-02-04T01:22:05;102055.50;;;13.17;80.15
81686;BME280;71102;50.960;6.888;2024-02-04T01:24:30;102049.50;;;13.30;79.36
81686;BME280;71102;50.960;6.888;2024-02-04T01:26:56;102050.91;;;13.07;79.77
81686;BME280;71102;50.960;6.888;2024-02-04T01:29:21;102054.38;;;13.03;80.40
81686;BME280;71102;50.960;6.888;2024-02-04T01:31:46;102050.97;;;13.12;80.38
81686;BME280;71102;50.960;6.888;2024-02-04T01:34:12;102048.16;;;13.02;81.74
81686;BME280;71102;50.960;6.888;2024-02-04T01:36:38;102053.88;;;12.76;82.05
81686;BME280;71102;50.960;6.888;2024-02-04T01:39:03;102050.16;;;12.68;84.22
81686;BME280;71102;50.960;6.888;2024-02-04T01:41:28;102047.50;;;12.68;83.92
81686;BME280;71102;50.960;6.888;2024-02-04T01:43:54;102047.88;;;12.89;82.43
81686;BME280;71102;50.960;6.888;2024-02-04T01:46:19;102060.09;;;12.78;82.01
81686;BME280;71102;50.960;6.888;2024-02-04T01:48:45;102045.00;;;12.75;82.59
81686;BME280;71102;50.960;6.888;2024-02-04T01:51:12;102047.03;;;12.90;81.56
81686;BME280;71102;50.960;6.888;2024-02-04T01:53:40;102038.28;;;12.97;81.26
81686;BME280;71102;50.960;6.888;2024-02-04T01:56:07;102036.44;;;12.93;81.78
81686;BME280;71102;50.960;6.888;2024-02-04T01:58:33;102040.66;;;12.82;82.42
81686;BME280;71102;50.960;6.888;2024-02-04T02:00:59;102035.00;;;12.62;83.08
81686;BME280;71102;50.960;6.888;2024-02-04T02:03:26;102037.03;;;12.77;82.53
81686;BME280;71102;50.960;6.888;2024-02-04T02:05:52;102031.78;;;12.80;82.89
81686;BME280;71102;50.960;6.888;2024-02-04T02:08:17;102036.34;;;12.87;82.73
81686;BME280;71102;50.960;6.888;2024-02-04T02:10:46;102046.22;;;12.95;81.89
81686;BME280;71102;50.960;6.888;2024-02-04T02:13:18;102032.91;;;12.94;81.88
81686;BME280;71102;50.960;6.888;2024-02-04T02:16:18;102024.22;;;13.02;81.52
81686;BME280;71102;50.960;6.888;2024-02-04T02:18:52;102022.94;;;12.82;81.96
81686;BME280;71102;50.960;6.888;2024-02-04T02:24:24;102035.34;;;12.82;82.16
81686;BME280;71102;50.960;6.888;2024-02-04T02:26:50;102021.84;;;12.70;82.59
81686;BME280;71102;50.960;6.888;2024-02-04T02:29:16;102027.03;;;13.15;80.89
81686;BME280;71102;50.960;6.888;2024-02-04T02:31:42;102023.50;;;13.14;80.52
81686;BME280;71102;50.960;6.888;2024-02-04T02:34:09;102019.25;;;13.27;80.21
81686;BME280;71102;50.960;6.888;2024-02-04T02:36:43;102015.25;;;12.99;81.39
81686;BME280;71102;50.960;6.888;2024-02-04T02:39:18;102019.75;;;13.00;81.81
81686;BME280;71102;50.960;6.888;2024-02-04T02:41:49;102020.78;;;13.11;81.58
81686;BME280;71102;50.960;6.888;2024-02-04T02:44:15;102023.19;;;12.97;81.74
81686;BME280;71102;50.960;6.888;2024-02-04T02:46:41;102022.63;;;13.15;81.31
81686;BME280;71102;50.960;6.888;2024-02-04T02:49:07;102026.53;;;12.84;82.81
81686;BME280;71102;50.960;6.888;2024-02-04T02:51:33;102028.81;;;13.14;81.23
81686;BME280;71102;50.960;6.888;2024-02-04T02:53:58;102022.47;;;13.06;81.69
81686;BME280;71102;50.960;6.888;2024-02-04T02:56:23;102018.41;;;13.31;80.66
81686;BME280;71102;50.960;6.888;2024-02-04T02:58:48;102020.59;;;12.99;82.24
81686;BME280;71102;50.960;6.888;2024-02-04T03:01:14;102020.34;;;13.41;80.62
81686;BME280;71102;50.960;6.888;2024-02-04T03:03:40;102021.00;;;13.26;80.89
81686;BME280;71102;50.960;6.888;2024-02-04T03:06:05;102022.59;;;13.14;81.23
81686;BME280;71102;50.960;6.888;2024-02-04T03:08:31;102015.84;;;13.37;80.33
81686;BME280;71102;50.960;6.888;2024-02-04T03:10:56;102021.44;;;12.98;81.37
81686;BME280;71102;50.960;6.888;2024-02-04T03:13:21;102005.00;;;13.23;80.60
81686;BME280;71102;50.960;6.888;2024-02-04T03:15:47;102005.59;;;13.02;81.52
81686;BME280;71102;50.960;6.888;2024-02-04T03:18:12;102011.00;;;13.09;81.33
81686;BME280;71102;50.960;6.888;2024-02-04T03:20:37;102005.47;;;12.98;81.70
81686;BME280;71102;50.960;6.888;2024-02-04T03:23:03;102008.03;;;12.92;81.87
81686;BME280;71102;50.960;6.888;2024-02-04T03:25:28;102007.72;;;13.28;80.45
81686;BME280;71102;50.960;6.888;2024-02-04T03:27:54;102006.75;;;13.21;80.90
81686;BME280;71102;50.960;6.888;2024-02-04T03:30:19;101998.06;;;13.33;79.88
81686;BME280;71102;50.960;6.888;2024-02-04T03:32:44;102002.19;;;13.13;80.66
81686;BME280;71102;50.960;6.888;2024-02-04T03:35:10;102010.19;;;13.14;80.58
81686;BME280;71102;50.960;6.888;2024-02-04T03:37:35;102011.13;;;13.18;80.52
81686;BME280;71102;50.960;6.888;2024-02-04T03:40:00;102005.72;;;13.12;80.94
81686;BME280;71102;50.960;6.888;2024-02-04T03:42:26;102002.22;;;13.14;80.90
81686;BME280;71102;50.960;6.888;2024-02-04T03:44:51;102003.13;;;13.16;80.34
81686;BME280;71102;50.960;6.888;2024-02-04T03:47:16;102004.22;;;13.29;79.92
81686;BME280;71102;50.960;6.888;2024-02-04T03:49:42;102001.28;;;13.12;80.68
81686;BME280;71102;50.960;6.888;2024-02-04T03:52:07;102003.47;;;13.39;79.90
81686;BME280;71102;50.960;6.888;2024-02-04T03:54:32;102009.13;;;13.02;81.29
81686;BME280;71102;50.960;6.888;2024-02-04T03:56:58;102001.22;;;13.09;81.03
81686;BME280;71102;50.960;6.888;2024-02-04T03:59:23;102008.84;;;13.43;79.51
81686;BME280;71102;50.960;6.888;2024-02-04T04:01:49;101995.47;;;13.37;79.69
81686;BME280;71102;50.960;6.888;2024-02-04T04:04:16;102003.59;;;13.49;79.15
81686;BME280;71102;50.960;6.888;2024-02-04T04:06:42;101995.00;;;13.06;80.48
81686;BME280;71102;50.960;6.888;2024-02-04T04:09:08;101987.44;;;13.34;79.37
81686;BME280;71102;50.960;6.888;2024-02-04T04:11:33;101988.25;;;13.29;79.66
81686;BME280;71102;50.960;6.888;2024-02-04T04:13:58;102005.44;;;13.55;78.79
81686;BME280;71102;50.960;6.888;2024-02-04T04:16:23;101992.81;;;13.37;78.86
81686;BME280;71102;50.960;6.888;2024-02-04T04:18:49;101992.81;;;13.40;78.91
81686;BME280;71102;50.960;6.888;2024-02-04T04:21:15;101997.31;;;13.43;78.75
81686;BME280;71102;50.960;6.888;2024-02-04T04:23:40;101997.56;;;13.62;78.39
81686;BME280;71102;50.960;6.888;2024-02-04T04:26:05;102009.16;;;13.67;77.85
81686;BME280;71102;50.960;6.888;2024-02-04T04:28:31;102009.06;;;13.58;78.59
81686;BME280;71102;50.960;6.888;2024-02-04T04:30:56;101998.41;;;13.58;78.30
81686;BME280;71102;50.960;6.888;2024-02-04T04:33:22;101998.94;;;13.33;79.31
81686;BME280;71102;50.960;6.888;2024-02-04T04:35:47;102008.59;;;13.25;79.52
81686;BME280;71102;50.960;6.888;2024-02-04T04:38:13;102004.66;;;13.62;78.56
81686;BME280;71102;50.960;6.888;2024-02-04T04:40:38;102016.16;;;13.58;78.19
81686;BME280;71102;50.960;6.888;2024-02-04T04:43:03;102029.94;;;13.28;79.06
81686;BME280;71102;50.960;6.888;2024-02-04T04:45:29;102018.47;;;13.34;78.97
81686;BME280;71102;50.960;6.888;2024-02-04T04:47:54;102025.50;;;13.29;78.71
81686;BME280;71102;50.960;6.888;2024-02-04T04:50:19;102035.41;;;13.40;78.25
81686;BME280;71102;50.960;6.888;2024-02-04T04:52:44;102035.41;;;13.40;78.67
81686;BME280;71102;50.960;6.888;2024-02-04T04:55:11;102029.94;;;13.28;78.81
81686;BME280;71102;50.960;6.888;2024-02-04T04:57:36;102026.06;;;13.68;77.37
81686;BME280;71102;50.960;6.888;2024-02-04T05:00:02;102029.09;;;13.32;77.98
81686;BME280;71102;50.960;6.888;2024-02-04T05:02:27;102033.88;;;13.54;77.87
81686;BME280;71102;50.960;6.888;2024-02-04T05:04:53;102022.88;;;13.33;78.40
81686;BME280;71102;50.960;6.888;2024-02-04T05:07:18;102016.13;;;13.56;77.72
81686;BME280;71102;50.960;6.888;2024-02-04T05:09:43;102007.88;;;13.37;78.90
81686;BME280;71102;50.960;6.888;2024-02-04T05:12:09;101999.97;;;13.41;77.91
81686;BME280;71102;50.960;6.888;2024-02-04T05:14:34;102006.41;;;13.58;77.55
81686;BME280;71102;50.960;6.888;2024-02-04T05:17:00;102006.91;;;13.30;78.21
81686;BME280;71102;50.960;6.888;2024-02-04T05:19:25;102000.75;;;13.34;78.07
81686;BME280;71102;50.960;6.888;2024-02-04T05:21:50;101998.28;;;13.49;77.89
81686;BME280;71102;50.960;6.888;2024-02-04T05:24:16;102007.28;;;13.59;77.54
81686;BME280;71102;50.960;6.888;2024-02-04T05:26:41;102015.88;;;13.38;77.53
81686;BME280;71102;50.960;6.888;2024-02-04T05:29:06;101996.28;;;13.33;77.87
81686;BME280;71102;50.960;6.888;2024-02-04T05:31:32;102002.78;;;13.55;77.31
81686;BME280;71102;50.960;6.888;2024-02-04T05:33:57;102010.44;;;13.31;78.22
81686;BME280;71102;50.960;6.888;2024-02-04T05:36:23;101999.25;;;13.54;77.45
81686;BME280;71102;50.960;6.888;2024-02-04T05:38:48;101995.81;;;13.66;77.24
81686;BME280;71102;50.960;6.888;2024-02-04T05:41:13;102003.69;;;13.55;77.72
81686;BME280;71102;50.960;6.888;2024-02-04T05:43:39;102000.78;;;13.37;78.30
81686;BME280;71102;50.960;6.888;2024-02-04T05:46:04;101999.13;;;13.47;78.41
81686;BME280;71102;50.960;6.888;2024-02-04T05:48:30;102012.22;;;13.30;79.28
81686;BME280;71102;50.960;6.888;2024-02-04T05:50:55;102015.34;;;13.63;77.99
81686;BME280;71102;50.960;6.888;2024-02-04T05:53:20;101995.81;;;13.63;77.79
81686;BME280;71102;50.960;6.888;2024-02-04T05:55:46;101999.81;;;13.32;79.10
81686;BME280;71102;50.960;6.888;2024-02-04T05:58:11;102000.16;;;13.58;78.23
81686;BME280;71102;50.960;6.888;2024-02-04T06:00:37;101984.88;;;13.43;78.30
81686;BME280;71102;50.960;6.888;2024-02-04T06:03:02;101985.06;;;13.55;78.02
81686;BME280;71102;50.960;6.888;2024-02-04T06:05:28;101978.84;;;13.56;77.67
81686;BME280;71102;50.960;6.888;2024-02-04T06:07:53;101969.78;;;13.42;78.19
81686;BME280;71102;50.960;6.888;2024-02-04T06:10:18;101964.72;;;13.63;77.30
81686;BME280;71102;50.960;6.888;2024-02-04T06:12:44;101962.88;;;13.56;77.04
81686;BME280;71102;50.960;6.888;2024-02-04T06:15:13;101963.81;;;13.60;77.29
81686;BME280;71102;50.960;6.888;2024-02-04T06:17:38;101965.41;;;13.49;77.66
81686;BME280;71102;50.960;6.888;2024-02-04T06:20:04;101959.31;;;13.57;77.30
81686;BME280;71102;50.960;6.888;2024-02-04T06:22:29;101967.38;;;13.62;77.19
81686;BME280;71102;50.960;6.888;2024-02-04T06:24:55;101969.81;;;13.45;77.65
81686;BME280;71102;50.960;6.888;2024-02-04T06:27:20;101981.41;;;13.47;77.85
81686;BME280;71102;50.960;6.888;2024-02-04T06:29:45;101976.13;;;13.53;77.46
81686;BME280;71102;50.960;6.888;2024-02-04T06:32:11;101980.66;;;13.60;77.11
81686;BME280;71102;50.960;6.888;2024-02-04T06:34:36;101997.00;;;13.87;76.26
81686;BME280;71102;50.960;6.888;2024-02-04T06:37:02;101978.75;;;13.47;77.90
81686;BME280;71102;50.960;6.888;2024-02-04T06:39:27;101977.28;;;13.73;76.84
81686;BME280;71102;50.960;6.888;2024-02-04T06:41:52;101978.03;;;13.62;77.31
81686;BME280;71102;50.960;6.888;2024-02-04T06:44:18;101968.25;;;13.59;77.66
81686;BME280;71102;50.960;6.888;2024-02-04T06:46:44;101958.28;;;13.46;77.51
81686;BME280;71102;50.960;6.888;2024-02-04T06:49:09;101963.59;;;13.45;77.97
81686;BME280;71102;50.960;6.888;2024-02-04T06:51:34;101958.28;;;13.46;78.59
81686;BME280;71102;50.960;6.888;2024-02-04T06:54:00;101954.00;;;13.56;78.26
81686;BME280;71102;50.960;6.888;2024-02-04T06:56:25;101959.81;;;13.28;79.07
81686;BME280;71102;50.960;6.888;2024-02-04T06:58:50;101967.38;;;12.99;80.46
81686;BME280;71102;50.960;6.888;2024-02-04T07:01:15;101973.03;;;13.20;79.42
81686;BME280;71102;50.960;6.888;2024-02-04T07:03:41;101969.88;;;13.48;79.34
81686;BME280;71102;50.960;6.888;2024-02-04T07:06:06;101981.88;;;13.19;80.09
81686;BME280;71102;50.960;6.888;2024-02-04T07:08:32;101978.47;;;13.29;79.72
81686;BME280;71102;50.960;6.888;2024-02-04T07:10:57;101958.84;;;13.21;79.65
81686;BME280;71102;50.960;6.888;2024-02-04T07:13:22;101958.13;;;13.33;79.63
81686;BME280;71102;50.960;6.888;2024-02-04T07:15:48;101960.69;;;13.25;80.06
81686;BME280;71102;50.960;6.888;2024-02-04T07:18:13;101935.53;;;13.05;81.36
81686;BME280;71102;50.960;6.888;2024-02-04T07:20:38;101941.16;;;13.26;80.37
81686;BME280;71102;50.960;6.888;2024-02-04T07:23:04;101934.09;;;13.28;80.21
81686;BME280;71102;50.960;6.888;2024-02-04T07:25:29;101940.28;;;13.26;79.97
81686;BME280;71102;50.960;6.888;2024-02-04T07:27:55;101944.13;;;13.46;78.81
81686;BME280;71102;50.960;6.888;2024-02-04T07:30:20;101958.16;;;13.34;79.25
81686;BME280;71102;50.960;6.888;2024-02-04T07:32:45;101952.00;;;13.38;79.35
81686;BME280;71102;50.960;6.888;2024-02-04T07:35:11;101966.31;;;13.49;78.86
81686;BME280;71102;50.960;6.888;2024-02-04T07:37:36;101962.34;;;13.17;79.50
81686;BME280;71102;50.960;6.888;2024-02-04T07:40:01;101972.00;;;13.12;80.00
81686;BME280;71102;50.960;6.888;2024-02-04T07:42:27;101974.16;;;13.36;79.59
81686;BME280;71102;50.960;6.888;2024-02-04T07:44:53;101967.81;;;13.29;79.62
81686;BME280;71102;50.960;6.888;2024-02-04T07:47:18;101959.75;;;13.22;79.84
81686;BME280;71102;50.960;6.888;2024-02-04T07:49:44;101974.88;;;13.24;79.67
81686;BME280;71102;50.960;6.888;2024-02-04T07:52:09;101958.00;;;13.25;79.94
81686;BME280;71102;50.960;6.888;2024-02-04T07:54:34;101967.78;;;13.26;79.79
81686;BME280;71102;50.960;6.888;2024-02-04T07:56:59;101980.06;;;13.17;80.62
81686;BME280;71102;50.960;6.888;2024-02-04T07:59:25;101981.69;;;13.06;80.75
81686;BME280;71102;50.960;6.888;2024-02-04T08:01:50;101964.25;;;13.27;79.94
81686;BME280;71102;50.960;6.888;2024-02-04T08:04:15;101962.41;;;13.20;80.18
81686;BME280;71102;50.960;6.888;2024-02-04T08:06:41;101961.50;;;13.20;79.41
81686;BME280;71102;50.960;6.888;2024-02-04T08:09:06;101964.47;;;13.42;79.03
81686;BME280;71102;50.960;6.888;2024-02-04T08:11:31;101962.50;;;13.29;79.08
81686;BME280;71102;50.960;6.888;2024-02-04T08:13:57;101960.69;;;13.25;79.49
81686;BME280;71102;50.960;6.888;2024-02-04T08:16:22;101950.13;;;13.31;79.45
81686;BME280;71102;50.960;6.888;2024-02-04T08:18:48;101961.81;;;13.44;78.78
81686;BME280;71102;50.960;6.888;2024-02-04T08:21:13;101953.91;;;13.48;78.88
81686;BME280;71102;50.960;6.888;2024-02-04T08:23:38;101944.00;;;13.38;78.77
81686;BME280;71102;50.960;6.888;2024-02-04T08:26:04;101941.44;;;13.44;78.56
81686;BME280;71102;50.960;6.888;2024-02-04T08:28:29;101953.19;;;13.61;77.91
81686;BME280;71102;50.960;6.888;2024-02-04T08:30:54;101960.88;;;13.42;78.83
81686;BME280;71102;50.960;6.888;2024-02-04T08:33:20;101962.94;;;13.61;78.34
81686;BME280;71102;50.960;6.888;2024-02-04T08:35:45;101960.38;;;13.70;77.99
81686;BME280;71102;50.960;6.888;2024-02-04T08:38:10;101964.81;;;13.69;78.08
81686;BME280;71102;50.960;6.888;2024-02-04T08:40:36;101963.72;;;13.52;78.50
81686;BME280;71102;50.960;6.888;2024-02-04T08:43:01;101979.84;;;13.63;78.63
81686;BME280;71102;50.960;6.888;2024-02-04T08:45:27;101975.44;;;13.68;78.77
81686;BME280;71102;50.960;6.888;2024-02-04T08:47:52;101972.53;;;13.48;80.90
81686;BME280;71102;50.960;6.888;2024-02-04T08:50:17;101967.91;;;13.35;80.73
81686;BME280;71102;50.960;6.888;2024-02-04T08:52:43;101960.84;;;13.37;80.72
81686;BME280;71102;50.960;6.888;2024-02-04T08:55:08;101959.31;;;13.54;79.58
81686;BME280;71102;50.960;6.888;2024-02-04T08:57:33;101958.56;;;13.67;79.25
81686;BME280;71102;50.960;6.888;2024-02-04T08:59:58;101967.13;;;13.42;79.82
81686;BME280;71102;50.960;6.888;2024-02-04T09:02:24;101969.97;;;13.54;79.10
81686;BME280;71102;50.960;6.888;2024-02-04T09:04:49;101964.91;;;13.75;78.62
81686;BME280;71102;50.960;6.888;2024-02-04T09:07:14;101951.19;;;13.45;78.80
81686;BME280;71102;50.960;6.888;2024-02-04T09:09:40;101957.47;;;13.50;78.71
81686;BME280;71102;50.960;6.888;2024-02-04T09:12:05;101955.97;;;13.73;78.38
81686;BME280;71102;50.960;6.888;2024-02-04T09:14:30;101966.84;;;13.88;78.10
81686;BME280;71102;50.960;6.888;2024-02-04T09:16:56;101978.03;;;13.62;78.23
81686;BME280;71102;50.960;6.888;2024-02-04T09:19:21;101959.22;;;13.48;78.59
81686;BME280;71102;50.960;6.888;2024-02-04T09:21:46;101961.22;;;13.64;78.50
81686;BME280;71102;50.960;6.888;2024-02-04T09:24:12;101986.44;;;13.95;77.64
81686;BME280;71102;50.960;6.888;2024-02-04T09:26:37;101958.03;;;13.95;77.28
81686;BME280;71102;50.960;6.888;2024-02-04T09:29:02;101971.53;;;14.13;77.14
81686;BME280;71102;50.960;6.888;2024-02-04T09:31:28;101965.25;;;14.07;76.58
81686;BME280;71102;50.960;6.888;2024-02-04T09:33:53;101979.53;;;14.12;76.51
81686;BME280;71102;50.960;6.888;2024-02-04T09:36:18;102017.94;;;13.60;77.98
81686;BME280;71102;50.960;6.888;2024-02-04T09:38:44;101994.53;;;14.04;77.84
81686;BME280;71102;50.960;6.888;2024-02-04T09:41:09;101998.69;;;13.79;78.17
81686;BME280;71102;50.960;6.888;2024-02-04T09:43:35;101993.19;;;13.69;78.77
81686;BME280;71102;50.960;6.888;2024-02-04T09:46:01;101995.84;;;13.67;79.92
81686;BME280;71102;50.960;6.888;2024-02-04T09:48:30;101987.91;;;13.70;80.53
81686;BME280;71102;50.960;6.888;2024-02-04T09:50:57;101970.34;;;13.87;80.47
81686;BME280;71102;50.960;6.888;2024-02-04T09:53:34;101979.47;;;14.07;78.40
81686;BME280;71102;50.960;6.888;2024-02-04T09:56:01;101985.44;;;13.85;77.89
81686;BME280;71102;50.960;6.888;2024-02-04T09:58:27;101976.69;;;13.97;78.59
81686;BME280;71102;50.960;6.888;2024-02-04T10:00:54;101974.88;;;13.94;78.86
81686;BME280;71102;50.960;6.888;2024-02-04T10:03:19;101974.84;;;13.91;78.89
81686;BME280;71102;50.960;6.888;2024-02-04T10:05:44;101964.50;;;14.20;77.22
81686;BME280;71102;50.960;6.888;2024-02-04T10:08:10;101971.44;;;14.06;77.98
81686;BME280;71102;50.960;6.888;2024-02-04T10:10:35;101975.78;;;13.96;77.59
81686;BME280;71102;50.960;6.888;2024-02-04T10:13:06;101949.03;;;13.87;78.25
81686;BME280;71102;50.960;6.888;2024-02-04T10:15:31;101971.47;;;14.07;77.18
81686;BME280;71102;50.960;6.888;2024-02-04T10:17:57;101962.47;;;13.96;78.11
81686;BME280;71102;50.960;6.888;2024-02-04T10:20:22;101968.72;;;13.97;78.15
81686;BME280;71102;50.960;6.888;2024-02-04T10:22:47;101965.13;;;13.96;78.13
81686;BME280;71102;50.960;6.888;2024-02-04T10:25:13;101985.59;;;14.00;77.32
81686;BME280;71102;50.960;6.888;2024-02-04T10:27:38;101965.47;;;14.23;76.62
81686;BME280;71102;50.960;6.888;2024-02-04T10:30:05;101983.81;;;13.98;77.00
81686;BME280;71102;50.960;6.888;2024-02-04T10:32:30;101967.09;;;14.12;76.72
81686;BME280;71102;50.960;6.888;2024-02-04T10:34:57;101974.97;;;14.02;76.73
81686;BME280;71102;50.960;6.888;2024-02-04T10:37:23;101976.13;;;14.23;75.53
81686;BME280;71102;50.960;6.888;2024-02-04T10:39:48;101958.22;;;14.13;76.03
81686;BME280;71102;50.960;6.888;2024-02-04T10:42:15;101963.59;;;14.16;75.88
81686;BME280;71102;50.960;6.888;2024-02-04T10:44:42;101975.16;;;14.21;75.28
81686;BME280;71102;50.960;6.888;2024-02-04T10:47:14;101970.81;;;14.26;75.52
81686;BME280;71102;50.960;6.888;2024-02-04T10:49:46;101959.97;;;14.11;75.43
81686;BME280;71102;50.960;6.888;2024-02-04T10:52:13;101950.38;;;14.24;75.46
81686;BME280;71102;50.960;6.888;2024-02-04T10:54:39;101958.03;;;13.95;76.14
81686;BME280;71102;50.960;6.888;2024-02-04T10:57:11;101959.97;;;14.11;76.31
81686;BME280;71102;50.960;6.888;2024-02-04T10:59:37;101974.13;;;14.07;75.97
81686;BME280;71102;50.960;6.888;2024-02-04T11:02:05;101965.66;;;14.43;75.26
81686;BME280;71102;50.960;6.888;2024-02-04T11:04:32;101959.19;;;14.21;75.06
81686;BME280;71102;50.960;6.888;2024-02-04T11:07:00;101954.63;;;14.08;76.36
81686;BME280;71102;50.960;6.888;2024-02-04T11:09:26;101956.56;;;14.23;76.16
81686;BME280;71102;50.960;6.888;2024-02-04T11:11:54;101944.25;;;14.38;75.71
81686;BME280;71102;50.960;6.888;2024-02-04T11:14:20;101947.94;;;14.49;75.09
81686;BME280;71102;50.960;6.888;2024-02-04T11:28:00;101955.88;;;14.42;74.70
81686;BME280;71102;50.960;6.888;2024-02-04T11:30:25;101935.63;;;14.66;74.15
81686;BME280;71102;50.960;6.888;2024-02-04T11:32:51;101935.63;;;14.63;73.37
81686;BME280;71102;50.960;6.888;2024-02-04T11:35:16;101941.88;;;14.71;73.36
81686;BME280;71102;50.960;6.888;2024-02-04T11:37:42;101935.66;;;14.71;73.80
81686;BME280;71102;50.960;6.888;2024-02-04T11:40:07;101921.59;;;14.91;73.67
81686;BME280;71102;50.960;6.888;2024-02-04T11:42:38;101910.44;;;14.31;74.99
81686;BME280;71102;50.960;6.888;2024-02-04T11:45:16;101919.28;;;14.27;75.24
81686;BME280;71102;50.960;6.888;2024-02-04T11:47:41;101918.50;;;14.39;74.98
81686;BME280;71102;50.960;6.888;2024-02-04T11:50:07;101908.72;;;14.38;74.73
81686;BME280;71102;50.960;6.888;2024-02-04T11:52:33;101900.78;;;14.47;74.94
81686;BME280;71102;50.960;6.888;2024-02-04T11:54:59;101905.28;;;14.55;74.30
81686;BME280;71102;50.960;6.888;2024-02-04T11:57:25;101907.28;;;14.80;73.62
81686;BME280;71102;50.960;6.888;2024-02-04T11:59:53;101899.09;;;14.53;74.14
81686;BME280;71102;50.960;6.888;2024-02-04T12:02:19;101921.09;;;14.31;74.38
81686;BME280;71102;50.960;6.888;2024-02-04T12:04:45;101903.31;;;14.29;74.87
81686;BME280;71102;50.960;6.888;2024-02-04T12:07:11;101893.22;;;13.98;75.19
81686;BME280;71102;50.960;6.888;2024-02-04T12:09:38;101894.25;;;14.13;75.40
81686;BME280;71102;50.960;6.888;2024-02-04T12:12:04;101888.41;;;14.53;73.99
81686;BME280;71102;50.960;6.888;2024-02-04T12:14:30;101906.50;;;13.95;76.48
81686;BME280;71102;50.960;6.888;2024-02-04T12:16:56;101885.22;;;13.99;77.36
81686;BME280;71102;50.960;6.888;2024-02-04T12:19:22;101890.66;;;14.11;76.93
81686;BME280;71102;50.960;6.888;2024-02-04T12:21:47;101878.28;;;14.16;76.73
81686;BME280;71102;50.960;6.888;2024-02-04T12:24:12;101885.34;;;14.08;77.61
81686;BME280;71102;50.960;6.888;2024-02-04T12:26:39;101890.47;;;13.92;77.68
81686;BME280;71102;50.960;6.888;2024-02-04T12:29:06;101893.94;;;13.83;77.90
81686;BME280;71102;50.960;6.888;2024-02-04T12:31:31;101888.00;;;14.11;77.14
81686;BME280;71102;50.960;6.888;2024-02-04T12:34:00;101876.34;;;14.00;77.99
81686;BME280;71102;50.960;6.888;2024-02-04T12:36:32;101875.47;;;14.01;79.38
81686;BME280;71102;50.960;6.888;2024-02-04T12:39:01;101874.75;;;14.20;78.13
81686;BME280;71102;50.960;6.888;2024-02-04T12:41:27;101876.53;;;14.21;77.43
81686;BME280;71102;50.960;6.888;2024-02-04T12:43:57;101864.97;;;14.16;80.44
81686;BME280;71102;50.960;6.888;2024-02-04T12:46:23;101870.25;;;14.13;79.78
81686;BME280;71102;50.960;6.888;2024-02-04T12:48:52;101869.25;;;13.99;79.42
81686;BME280;71102;50.960;6.888;2024-02-04T12:53:50;101873.53;;;13.84;79.35
81686;BME280;71102;50.960;6.888;2024-02-04T12:56:15;101863.84;;;13.93;79.16
81686;BME280;71102;50.960;6.888;2024-02-04T12:58:43;101861.22;;;13.96;78.39
81686;BME280;71102;50.960;6.888;2024-02-04T13:01:09;101862.88;;;13.84;78.74